Time;durP1;ratioP1;P1;durP2;ratioP2;P2;SDS_P1;SDS_P2;PMS_P1;PMS_P2;Temp;Humidity;BMP_temperature;BMP_pressure;BME280_temperature;BME280_humidity;BME280_pressure;Samples;Min_cycle;Max_cycle;Signal;HPM_P1;HPM_P2
2023/12/01 00:01:47;;;;;;;61.08;26.73;;;2.00;99.90;;;;;;5092883;28;20216;-55
2023/12/01 00:04:14;;;;;;;70.72;27.55;;;2.10;99.90;;;;;;5093183;28;20284;-51
2023/12/01 00:06:40;;;;;;;68.20;27.77;;;2.10;99.90;;;;;;5093672;28;20599;-56
2023/12/01 00:09:05;;;;;;;70.50;26.75;;;2.10;99.90;;;;;;5092809;28;20157;-55
2023/12/01 00:11:31;;;;;;;56.45;24.65;;;2.10;99.90;;;;;;5093209;28;20166;-55
2023/12/01 00:13:56;;;;;;;72.70;26.45;;;2.10;99.90;;;;;;5093104;28;20218;-55
2023/12/01 00:16:22;;;;;;;77.15;25.90;;;2.30;99.90;;;;;;5092767;28;20195;-55
2023/12/01 00:18:47;;;;;;;64.22;25.50;;;2.30;99.90;;;;;;5092890;28;20520;-55
2023/12/01 00:21:13;;;;;;;62.15;24.98;;;2.10;99.90;;;;;;5093039;28;20200;-55
2023/12/01 00:23:38;;;;;;;65.15;26.33;;;2.30;99.90;;;;;;5093063;28;20214;-56
2023/12/01 00:26:04;;;;;;;74.13;26.85;;;2.10;99.90;;;;;;5092628;28;20241;-55
2023/12/01 00:28:30;;;;;;;68.13;26.15;;;2.10;99.90;;;;;;5092506;28;20169;-55
2023/12/01 00:30:55;;;;;;;69.75;26.30;;;2.10;99.90;;;;;;5092680;28;20173;-52
2023/12/01 00:33:21;;;;;;;67.05;26.70;;;2.10;99.90;;;;;;5092513;28;20154;-54
2023/12/01 00:35:47;;;;;;;69.40;26.45;;;2.20;99.90;;;;;;5104763;28;20173;-55
2023/12/01 00:38:12;;;;;;;76.70;27.52;;;2.20;99.90;;;;;;5112928;28;20176;-55
2023/12/01 00:40:38;;;;;;;80.22;29.77;;;2.20;99.90;;;;;;5112537;28;20333;-55
2023/12/01 00:43:03;;;;;;;58.58;26.27;;;2.10;99.90;;;;;;5112562;28;20213;-53
2023/12/01 00:45:29;;;;;;;60.38;24.77;;;2.10;99.90;;;;;;5112539;28;20165;-53
2023/12/01 00:47:54;;;;;;;63.95;25.02;;;2.10;99.90;;;;;;5112576;28;20218;-54
2023/12/01 00:50:20;;;;;;;63.90;25.13;;;2.10;99.90;;;;;;5112183;28;20222;-53
2023/12/01 00:52:45;;;;;;;63.05;25.02;;;2.10;99.90;;;;;;5112263;28;20295;-54
2023/12/01 00:55:11;;;;;;;55.92;24.02;;;2.10;99.90;;;;;;5112874;28;20532;-55
2023/12/01 00:57:37;;;;;;;67.88;26.45;;;2.20;99.90;;;;;;5112377;28;20163;-54
2023/12/01 01:00:03;;;;;;;59.35;23.63;;;2.00;99.90;;;;;;5112162;28;20207;-54
2023/12/01 01:02:31;;;;;;;66.63;25.77;;;2.10;99.90;;;;;;5110983;28;20518;-51
2023/12/01 01:04:56;;;;;;;80.72;27.38;;;2.20;99.90;;;;;;5111927;28;20165;-53
2023/12/01 01:07:22;;;;;;;66.53;25.40;;;1.90;99.90;;;;;;5112277;28;20210;-55
2023/12/01 01:09:48;;;;;;;77.10;26.95;;;2.00;99.90;;;;;;5112408;28;20165;-54
2023/12/01 01:12:13;;;;;;;59.42;24.25;;;2.10;99.90;;;;;;5112358;28;20216;-44
2023/12/01 01:14:39;;;;;;;72.35;26.60;;;2.10;99.90;;;;;;5112876;28;20671;-53
2023/12/01 01:17:05;;;;;;;69.82;25.80;;;2.00;99.90;;;;;;5112273;28;20171;-55
2023/12/01 01:19:31;;;;;;;61.80;24.15;;;2.10;99.90;;;;;;5111930;28;20161;-54
2023/12/01 01:21:56;;;;;;;57.10;24.85;;;2.00;99.90;;;;;;5112020;28;20210;-53
2023/12/01 01:24:22;;;;;;;72.68;25.05;;;2.00;99.90;;;;;;5112053;28;20161;-53
2023/12/01 01:26:47;;;;;;;74.25;24.63;;;2.10;99.90;;;;;;5111913;28;20252;-54
2023/12/01 01:29:13;;;;;;;66.35;24.70;;;2.00;99.90;;;;;;5112078;28;20209;-44
2023/12/01 01:31:39;;;;;;;61.58;23.98;;;2.10;99.90;;;;;;5111942;28;20180;-53
2023/12/01 01:34:04;;;;;;;66.50;25.17;;;2.20;99.90;;;;;;5111627;28;20650;-54
2023/12/01 01:36:30;;;;;;;73.50;26.88;;;2.20;99.90;;;;;;5111838;28;20218;-52
2023/12/01 01:38:55;;;;;;;69.20;27.38;;;2.20;99.90;;;;;;5111824;28;20161;-51
2023/12/01 01:41:21;;;;;;;75.40;28.52;;;2.10;99.90;;;;;;5111715;28;20240;-55
2023/12/01 01:43:46;;;;;;;63.03;24.92;;;2.00;99.90;;;;;;5111697;28;20176;-54
2023/12/01 01:46:14;;;;;;;72.63;28.60;;;2.10;99.90;;;;;;5112171;28;20173;-53
2023/12/01 01:48:41;;;;;;;64.60;25.00;;;2.10;99.90;;;;;;5112180;28;20541;-53
2023/12/01 01:51:08;;;;;;;67.90;25.80;;;2.10;99.90;;;;;;5111690;28;20232;-54
2023/12/01 01:53:35;;;;;;;64.47;25.63;;;2.20;99.90;;;;;;5111635;28;20666;-54
2023/12/01 01:56:00;;;;;;;60.53;25.48;;;2.20;99.90;;;;;;5111901;28;20578;-54
2023/12/01 01:58:26;;;;;;;55.95;25.98;;;2.20;99.90;;;;;;5111598;28;20239;-51
2023/12/01 02:00:52;;;;;;;74.95;26.13;;;2.10;99.90;;;;;;5111591;28;20208;-53
2023/12/01 02:03:20;;;;;;;62.13;24.92;;;2.10;99.90;;;;;;5096361;28;20168;-51
2023/12/01 02:05:49;;;;;;;67.97;25.65;;;2.20;99.90;;;;;;5095562;28;20177;-53
2023/12/01 02:08:24;;;;;;;54.67;25.77;;;2.10;99.90;;;;;;5095332;28;20161;-54
2023/12/01 02:10:51;;;;;;;59.00;25.90;;;2.20;99.90;;;;;;5095719;28;20245;-54
2023/12/01 02:13:17;;;;;;;55.88;25.10;;;2.20;99.90;;;;;;5095327;28;20184;-52
2023/12/01 02:15:43;;;;;;;50.78;22.63;;;2.10;99.90;;;;;;5095511;28;20161;-53
2023/12/01 02:18:25;;;;;;;57.75;25.58;;;2.10;99.90;;;;;;5095400;28;20188;-54
2023/12/01 02:20:58;;;;;;;51.58;22.10;;;2.10;99.90;;;;;;5095158;28;20240;-54
2023/12/01 02:23:23;;;;;;;45.25;21.08;;;2.30;99.90;;;;;;5094963;28;20167;-54
2023/12/01 02:25:49;;;;;;;43.63;20.63;;;2.10;99.90;;;;;;5094854;28;20255;-48
2023/12/01 02:28:16;;;;;;;39.75;19.17;;;2.10;99.90;;;;;;5094872;28;20223;-48
2023/12/01 02:30:52;;;;;;;47.20;23.92;;;2.10;99.90;;;;;;5095217;28;20572;-53
2023/12/01 02:33:18;;;;;;;47.72;22.45;;;2.00;99.90;;;;;;5096357;28;20518;-53
2023/12/01 02:35:48;;;;;;;43.28;22.17;;;2.00;99.90;;;;;;5094715;28;20600;-53
2023/12/01 02:38:14;;;;;;;48.92;22.48;;;2.10;99.90;;;;;;5094797;28;20166;-52
2023/12/01 02:40:49;;;;;;;44.65;22.48;;;2.00;99.90;;;;;;5095021;28;20201;-54
2023/12/01 02:43:15;;;;;;;42.67;21.17;;;2.10;99.90;;;;;;5094818;28;20202;-53
2023/12/01 02:45:41;;;;;;;42.95;21.73;;;2.10;99.90;;;;;;5094925;28;20583;-55
2023/12/01 02:48:07;;;;;;;47.42;22.15;;;2.10;99.90;;;;;;5094383;28;20194;-54
2023/12/01 02:50:33;;;;;;;44.35;21.17;;;2.20;99.90;;;;;;5094762;28;20653;-53
2023/12/01 02:52:59;;;;;;;46.92;21.60;;;2.30;99.90;;;;;;5094215;28;20213;-54
2023/12/01 02:55:25;;;;;;;43.03;21.40;;;2.10;99.90;;;;;;5112590;28;20177;-55
2023/12/01 02:57:51;;;;;;;42.63;21.00;;;2.20;99.90;;;;;;5114630;28;20512;-54
2023/12/01 03:00:16;;;;;;;47.28;22.63;;;2.10;99.90;;;;;;5114772;28;20196;-54
2023/12/01 03:02:43;;;;;;;44.78;22.48;;;2.20;99.90;;;;;;5115211;28;20184;-53
2023/12/01 03:05:10;;;;;;;44.47;21.13;;;2.20;99.90;;;;;;5115248;28;20165;-44
2023/12/01 03:07:36;;;;;;;43.55;21.40;;;2.20;99.90;;;;;;5114542;28;20193;-44
2023/12/01 03:10:02;;;;;;;47.53;22.35;;;2.10;99.90;;;;;;5114378;28;20161;-45
2023/12/01 03:12:28;;;;;;;38.65;19.67;;;2.10;99.90;;;;;;5114427;28;20172;-45
2023/12/01 03:14:54;;;;;;;36.90;18.02;;;2.10;99.90;;;;;;5114225;28;20153;-44
2023/12/01 03:17:23;;;;;;;40.50;18.75;;;2.00;99.90;;;;;;5114297;28;20252;-44
2023/12/01 03:19:49;;;;;;;46.13;21.13;;;2.00;99.90;;;;;;5114494;28;20168;-44
2023/12/01 03:22:14;;;;;;;42.08;20.60;;;2.10;99.90;;;;;;5114108;28;20208;-45
2023/12/01 03:24:42;;;;;;;41.90;19.67;;;2.10;99.90;;;;;;5102116;28;20173;-44
2023/12/01 03:27:07;;;;;;;36.58;18.30;;;2.10;99.90;;;;;;5093689;28;20632;-44
2023/12/01 03:29:34;;;;;;;39.83;18.55;;;2.10;99.90;;;;;;5093707;28;20165;-45
2023/12/01 03:32:00;;;;;;;39.72;18.13;;;2.10;99.90;;;;;;5093662;28;20210;-44
2023/12/01 03:34:26;;;;;;;36.13;17.77;;;2.20;99.90;;;;;;5093439;28;20170;-46
2023/12/01 03:36:52;;;;;;;38.10;18.02;;;2.10;99.90;;;;;;5093586;28;20173;-44
2023/12/01 03:39:17;;;;;;;34.03;16.90;;;2.10;99.90;;;;;;5093707;28;20161;-44
2023/12/01 03:41:47;;;;;;;33.03;15.77;;;2.10;99.90;;;;;;5093380;28;20258;-45
2023/12/01 03:44:13;;;;;;;34.97;17.98;;;2.10;99.90;;;;;;5093602;28;20314;-44
2023/12/01 03:46:39;;;;;;;36.00;17.10;;;2.20;99.90;;;;;;5093885;28;20218;-45
2023/12/01 03:49:05;;;;;;;35.33;16.98;;;2.20;99.90;;;;;;5093236;28;20166;-45
2023/12/01 03:51:31;;;;;;;36.20;16.17;;;2.20;99.90;;;;;;5075131;28;20671;-50
2023/12/01 03:53:56;;;;;;;34.25;17.45;;;2.30;99.90;;;;;;5093611;28;20173;-49
2023/12/01 03:56:22;;;;;;;35.60;17.45;;;2.40;99.90;;;;;;5104960;28;20682;-53
2023/12/01 03:58:48;;;;;;;38.58;17.75;;;2.40;99.90;;;;;;5113479;28;20165;-53
2023/12/01 04:01:13;;;;;;;34.72;18.63;;;2.30;99.90;;;;;;5113370;28;20197;-54
2023/12/01 04:03:39;;;;;;;36.60;18.52;;;2.30;99.90;;;;;;5113850;28;20179;-52
2023/12/01 04:06:05;;;;;;;40.17;19.17;;;2.20;99.90;;;;;;5113365;28;20169;-54
2023/12/01 04:08:31;;;;;;;38.00;16.85;;;2.30;99.90;;;;;;5113197;28;20172;-54
2023/12/01 04:10:57;;;;;;;36.95;21.52;;;2.20;99.90;;;;;;5113203;28;20221;-51
2023/12/01 04:13:24;;;;;;;42.10;20.33;;;2.30;99.90;;;;;;5113201;28;20168;-53
2023/12/01 04:15:50;;;;;;;39.67;21.38;;;2.30;99.90;;;;;;5113405;28;20244;-53
2023/12/01 04:18:16;;;;;;;40.38;19.83;;;2.30;99.90;;;;;;5113445;28;20199;-54
2023/12/01 04:20:41;;;;;;;46.90;22.77;;;2.30;99.90;;;;;;5113483;28;20205;-54
2023/12/01 04:23:09;;;;;;;50.00;22.67;;;2.30;99.90;;;;;;5111382;28;20173;-53
2023/12/01 04:25:46;;;;;;;48.17;21.23;;;2.30;99.90;;;;;;5091994;28;20165;-54
2023/12/01 04:28:13;;;;;;;38.20;18.88;;;2.30;99.90;;;;;;5093221;28;20174;-54
2023/12/01 04:30:40;;;;;;;45.22;21.75;;;2.20;99.90;;;;;;5092874;28;20168;-52
2023/12/01 04:33:06;;;;;;;43.78;21.48;;;2.20;99.90;;;;;;5092754;28;20173;-50
2023/12/01 04:35:34;;;;;;;48.28;21.42;;;2.30;99.90;;;;;;5092337;28;20686;-51
2023/12/01 04:38:03;;;;;;;47.72;21.75;;;2.30;99.90;;;;;;5092293;28;20208;-50
2023/12/01 04:40:29;;;;;;;46.25;21.05;;;2.30;99.90;;;;;;5092471;28;20200;-49
2023/12/01 04:42:56;;;;;;;46.85;22.77;;;2.30;99.90;;;;;;5092315;28;20164;-45
2023/12/01 04:45:24;;;;;;;45.17;20.27;;;2.30;99.90;;;;;;5092304;28;20163;-46
2023/12/01 04:47:51;;;;;;;45.53;21.02;;;2.30;99.90;;;;;;5092114;28;20177;-46
2023/12/01 04:50:18;;;;;;;48.33;22.58;;;2.20;99.90;;;;;;5092358;28;20180;-45
2023/12/01 04:52:47;;;;;;;46.55;21.83;;;2.20;99.90;;;;;;5092265;28;20223;-46
2023/12/01 04:55:14;;;;;;;44.60;19.00;;;2.20;99.90;;;;;;5092092;28;20176;-44
2023/12/01 04:57:41;;;;;;;48.75;21.75;;;2.20;99.90;;;;;;5092393;28;20184;-45
2023/12/01 05:00:21;;;;;;;47.03;23.02;;;2.20;99.90;;;;;;5091955;28;20165;-44
2023/12/01 05:02:51;;;;;;;45.20;22.35;;;2.30;99.90;;;;;;5091888;28;20169;-45
2023/12/01 05:05:17;;;;;;;46.28;23.08;;;2.20;99.90;;;;;;5091830;28;20633;-44
2023/12/01 05:07:43;;;;;;;41.78;20.35;;;2.20;99.90;;;;;;5091869;28;20196;-44
2023/12/01 05:10:14;;;;;;;50.22;20.77;;;2.20;99.90;;;;;;5092286;28;20533;-45
2023/12/01 05:12:44;;;;;;;43.40;20.58;;;2.20;99.90;;;;;;5092182;28;20200;-44
2023/12/01 05:15:15;;;;;;;40.92;19.75;;;2.30;99.90;;;;;;5092489;28;20168;-45
2023/12/01 05:17:48;;;;;;;50.17;21.83;;;2.20;99.90;;;;;;5092088;28;20175;-47
2023/12/01 05:20:19;;;;;;;38.15;18.73;;;2.30;99.90;;;;;;5091802;28;20563;-47
2023/12/01 05:22:45;;;;;;;36.10;18.15;;;2.30;99.90;;;;;;5091505;28;20628;-44
2023/12/01 05:25:13;;;;;;;39.47;19.58;;;2.40;99.90;;;;;;5099567;28;20181;-44
2023/12/01 05:27:44;;;;;;;46.70;20.67;;;2.40;99.90;;;;;;5111486;28;20592;-49
2023/12/01 05:30:12;;;;;;;38.65;18.48;;;2.40;99.90;;;;;;5112013;28;20191;-45
2023/12/01 05:32:44;;;;;;;40.53;19.92;;;2.40;99.90;;;;;;5111929;28;20195;-45
2023/12/01 05:35:10;;;;;;;33.60;18.67;;;2.40;99.90;;;;;;5112043;28;20192;-54
2023/12/01 05:37:40;;;;;;;43.50;19.50;;;2.30;99.90;;;;;;5092065;28;20537;-54
2023/12/01 05:40:08;;;;;;;39.92;20.77;;;2.30;99.90;;;;;;5111231;28;20561;-54
2023/12/01 05:42:34;;;;;;;38.50;18.25;;;2.30;99.90;;;;;;5111247;28;20640;-47
2023/12/01 05:44:59;;;;;;;31.70;18.20;;;2.30;99.90;;;;;;5111259;28;20172;-45
2023/12/01 05:47:25;;;;;;;37.03;17.92;;;2.20;99.90;;;;;;5111220;28;20171;-44
2023/12/01 05:49:50;;;;;;;31.23;15.48;;;2.20;99.90;;;;;;5111297;28;20168;-44
2023/12/01 05:52:16;;;;;;;35.10;18.30;;;2.20;99.90;;;;;;5110943;28;20208;-45
2023/12/01 05:54:42;;;;;;;37.90;16.98;;;2.20;99.90;;;;;;5096291;28;20186;-45
2023/12/01 05:57:08;;;;;;;38.60;17.30;;;2.10;99.90;;;;;;5091161;28;20168;-44
2023/12/01 05:59:34;;;;;;;37.08;18.50;;;2.10;99.90;;;;;;5090673;28;20165;-45
2023/12/01 06:01:59;;;;;;;25.65;13.70;;;2.10;99.90;;;;;;5090522;28;20266;-44
2023/12/01 06:04:25;;;;;;;30.95;15.93;;;2.10;99.90;;;;;;5090615;28;20158;-46
2023/12/01 06:06:51;;;;;;;36.35;17.08;;;2.10;99.90;;;;;;5072649;28;20248;-52
2023/12/01 06:09:17;;;;;;;30.17;16.60;;;2.10;99.90;;;;;;5090531;28;20248;-45
2023/12/01 06:11:43;;;;;;;29.98;15.43;;;2.20;99.90;;;;;;5090908;28;20161;-48
2023/12/01 06:14:08;;;;;;;32.63;16.52;;;2.20;99.90;;;;;;5091041;28;20256;-45
2023/12/01 06:16:34;;;;;;;31.85;16.13;;;2.20;99.90;;;;;;5090561;28;20239;-44
2023/12/01 06:19:00;;;;;;;30.17;15.57;;;2.20;99.90;;;;;;5090512;28;20173;-45
2023/12/01 06:21:25;;;;;;;41.58;19.73;;;2.20;99.90;;;;;;5090592;28;20284;-45
2023/12/01 06:23:51;;;;;;;32.58;17.52;;;2.20;99.90;;;;;;5090696;28;20166;-51
2023/12/01 06:26:16;;;;;;;57.15;25.55;;;2.20;99.90;;;;;;5090459;28;20172;-51
2023/12/01 06:28:42;;;;;;;40.85;21.58;;;2.30;99.90;;;;;;5091124;28;20165;-50
2023/12/01 06:31:08;;;;;;;99.25;40.28;;;2.30;99.90;;;;;;5090810;28;20507;-46
2023/12/01 06:33:33;;;;;;;73.07;30.05;;;2.20;99.90;;;;;;5072210;28;20169;-45
2023/12/01 06:35:59;;;;;;;61.97;27.45;;;2.30;99.90;;;;;;5090431;28;20219;-47
2023/12/01 06:38:25;;;;;;;46.75;23.27;;;2.30;99.90;;;;;;5090478;28;20248;-46
2023/12/01 06:40:50;;;;;;;60.83;28.58;;;2.30;99.90;;;;;;5090168;28;20729;-50
2023/12/01 06:43:16;;;;;;;43.40;20.92;;;2.40;99.90;;;;;;5090390;28;20169;-51
2023/12/01 06:45:42;;;;;;;46.05;22.25;;;2.40;99.90;;;;;;5090780;28;20164;-54
2023/12/01 06:48:08;;;;;;;40.42;20.25;;;2.40;99.90;;;;;;5090444;28;20176;-46
2023/12/01 06:50:33;;;;;;;54.13;24.85;;;2.30;99.90;;;;;;5093632;28;20165;-46
2023/12/01 06:53:00;;;;;;;44.90;21.95;;;2.40;99.90;;;;;;5097608;28;20200;-48
2023/12/01 06:55:26;;;;;;;68.25;30.92;;;2.30;99.90;;;;;;5113914;28;20697;-53
2023/12/01 06:57:51;;;;;;;63.47;29.52;;;2.30;99.90;;;;;;5114071;28;20161;-47
2023/12/01 07:00:33;;;;;;;39.13;20.48;;;2.30;99.90;;;;;;5095682;28;20173;-53
2023/12/01 07:03:09;;;;;;;35.13;19.58;;;2.30;99.90;;;;;;5114236;28;20184;-54
2023/12/01 07:05:37;;;;;;;47.63;22.30;;;2.30;99.90;;;;;;5114050;28;20209;-54
2023/12/01 07:08:06;;;;;;;31.88;18.92;;;2.40;99.90;;;;;;5114181;28;20180;-47
2023/12/01 07:10:32;;;;;;;44.85;22.42;;;2.40;99.90;;;;;;5114123;28;20203;-47
2023/12/01 07:12:59;;;;;;;43.50;21.77;;;2.50;99.90;;;;;;5113915;28;20628;-49
2023/12/01 07:15:25;;;;;;;31.58;17.98;;;2.50;99.90;;;;;;5114198;28;20577;-53
2023/12/01 07:17:56;;;;;;;33.95;17.55;;;2.50;99.90;;;;;;5113812;28;20164;-51
2023/12/01 07:20:21;;;;;;;40.15;21.92;;;2.50;99.90;;;;;;5113692;28;20217;-46
2023/12/01 07:22:51;;;;;;;30.98;17.25;;;2.50;99.90;;;;;;5111185;28;20176;-46
2023/12/01 07:25:25;;;;;;;28.23;17.35;;;2.50;99.90;;;;;;5093473;28;20646;-48
2023/12/01 07:27:55;;;;;;;38.78;19.70;;;2.50;99.90;;;;;;5093502;28;20213;-54
2023/12/01 07:30:20;;;;;;;40.55;21.65;;;2.50;99.90;;;;;;5093590;28;20248;-54
2023/12/01 07:32:48;;;;;;;39.63;20.90;;;2.50;99.90;;;;;;5093173;28;20759;-48
2023/12/01 07:35:14;;;;;;;35.88;18.45;;;2.50;99.90;;;;;;5093358;28;20197;-55
2023/12/01 07:37:44;;;;;;;41.33;21.45;;;2.50;99.90;;;;;;5093695;28;20176;-52
2023/12/01 07:40:11;;;;;;;36.05;19.98;;;2.50;99.90;;;;;;5093383;28;20165;-54
2023/12/01 07:42:38;;;;;;;30.08;15.82;;;2.60;99.90;;;;;;5093014;28;20185;-52
2023/12/01 07:45:05;;;;;;;26.23;15.43;;;2.60;99.90;;;;;;5092930;28;20236;-55
2023/12/01 07:47:30;;;;;;;34.72;20.80;;;2.40;99.90;;;;;;5092960;28;20173;-54
2023/12/01 07:49:57;;;;;;;37.38;22.75;;;2.50;99.90;;;;;;5092836;28;20494;-54
2023/12/01 07:52:23;;;;;;;27.63;15.43;;;2.40;99.90;;;;;;5092624;28;20661;-54
2023/12/01 07:54:48;;;;;;;33.00;16.13;;;2.40;99.90;;;;;;5111061;28;20662;-55
2023/12/01 07:57:14;;;;;;;22.80;12.77;;;2.40;99.90;;;;;;5113071;28;20188;-55
2023/12/01 07:59:39;;;;;;;25.80;14.05;;;2.40;99.90;;;;;;5113375;28;20204;-52
2023/12/01 08:02:05;;;;;;;28.90;14.88;;;2.50;99.90;;;;;;5112285;28;20288;-55
2023/12/01 08:04:31;;;;;;;29.77;15.75;;;2.50;99.90;;;;;;5112886;28;20157;-53
2023/12/01 08:06:56;;;;;;;27.50;14.13;;;2.60;99.90;;;;;;5112825;28;20502;-55
2023/12/01 08:09:23;;;;;;;26.45;13.52;;;2.60;99.90;;;;;;5112938;28;20172;-54
2023/12/01 08:11:49;;;;;;;28.65;15.32;;;2.50;99.90;;;;;;5112760;28;20635;-53
2023/12/01 08:14:14;;;;;;;34.30;17.38;;;2.60;99.90;;;;;;5112798;28;20169;-52
2023/12/01 08:16:42;;;;;;;33.63;16.45;;;2.50;99.90;;;;;;5113141;28;20196;-52
2023/12/01 08:19:09;;;;;;;49.03;19.42;;;2.50;99.90;;;;;;5113276;28;20165;-52
2023/12/01 08:21:35;;;;;;;43.50;17.85;;;2.50;99.90;;;;;;5112721;28;20349;-55
2023/12/01 08:24:01;;;;;;;38.78;17.17;;;2.50;99.90;;;;;;5111935;28;20248;-50
2023/12/01 08:26:27;;;;;;;33.17;15.52;;;2.50;99.90;;;;;;5093686;28;20185;-52
2023/12/01 08:28:53;;;;;;;37.42;15.70;;;2.50;99.90;;;;;;5092076;28;20585;-51
2023/12/01 08:31:19;;;;;;;35.45;14.93;;;2.50;99.90;;;;;;5092101;28;20188;-48
2023/12/01 08:33:45;;;;;;;37.67;15.68;;;2.50;99.90;;;;;;5092282;28;20624;-46
2023/12/01 08:36:11;;;;;;;34.30;14.88;;;2.50;99.90;;;;;;5092547;28;20165;-50
2023/12/01 08:38:36;;;;;;;20.42;10.85;;;2.50;99.90;;;;;;5092161;28;20523;-48
2023/12/01 08:41:02;;;;;;;27.83;13.88;;;2.50;99.90;;;;;;5091688;28;20202;-46
2023/12/01 08:43:27;;;;;;;54.03;20.05;;;2.60;99.90;;;;;;5091750;28;20169;-48
2023/12/01 08:45:53;;;;;;;36.25;14.32;;;2.60;99.90;;;;;;5091797;28;20176;-50
2023/12/01 08:48:18;;;;;;;31.73;13.30;;;2.60;99.90;;;;;;5091789;28;20215;-50
2023/12/01 08:50:46;;;;;;;21.58;10.70;;;2.60;99.90;;;;;;5091583;28;20169;-46
2023/12/01 08:53:12;;;;;;;45.90;19.88;;;2.60;99.90;;;;;;5099375;28;20301;-46
2023/12/01 08:55:37;;;;;;;16.90;9.07;;;1.80;99.90;;;;;;5112592;28;20242;-49
2023/12/01 08:58:03;;;;;;;25.40;12.38;;;2.50;99.90;;;;;;5111959;28;20640;-51
2023/12/01 09:00:28;;;;;;;29.27;13.43;;;2.60;99.90;;;;;;5111782;28;20199;-45
2023/12/01 09:02:57;;;;;;;25.23;13.85;;;2.70;99.90;;;;;;5112093;28;20180;-48
2023/12/01 09:05:23;;;;;;;17.13;10.75;;;2.70;99.90;;;;;;5111984;28;20180;-50
2023/12/01 09:07:48;;;;;;;20.63;12.10;;;2.70;99.90;;;;;;5111768;28;20168;-56
2023/12/01 09:10:15;;;;;;;18.25;9.10;;;2.80;99.90;;;;;;5111988;28;20161;-54
2023/12/01 09:12:42;;;;;;;17.88;9.90;;;2.70;99.90;;;;;;5112319;28;20297;-57
2023/12/01 09:15:08;;;;;;;16.98;10.18;;;2.70;99.90;;;;;;5112330;28;20169;-56
2023/12/01 09:17:33;;;;;;;21.88;12.45;;;2.60;99.90;;;;;;5111929;28;20516;-57
2023/12/01 09:19:59;;;;;;;22.00;12.77;;;2.70;99.90;;;;;;5111826;28;20248;-55
2023/12/01 09:22:25;;;;;;;27.73;14.38;;;2.70;99.90;;;;;;5107663;28;20201;-52
2023/12/01 09:24:50;;;;;;;16.95;9.90;;;2.80;99.90;;;;;;5091522;28;20172;-56
2023/12/01 09:27:17;;;;;;;16.33;9.85;;;2.70;99.90;;;;;;5090853;28;20558;-56
2023/12/01 09:29:42;;;;;;;18.98;9.30;;;2.80;99.90;;;;;;5091383;28;20177;-55
2023/12/01 09:32:08;;;;;;;12.68;7.65;;;2.70;99.90;;;;;;5091468;28;20222;-56
2023/12/01 09:34:33;;;;;;;12.98;8.38;;;2.70;99.90;;;;;;5090997;28;20164;-55
2023/12/01 09:36:59;;;;;;;12.35;8.27;;;2.70;99.90;;;;;;5090930;28;20165;-55
2023/12/01 09:39:24;;;;;;;11.52;7.45;;;2.80;99.90;;;;;;5090957;28;20177;-56
2023/12/01 09:41:51;;;;;;;15.00;8.65;;;2.80;99.90;;;;;;5090937;28;20270;-56
2023/12/01 09:44:17;;;;;;;18.17;8.23;;;2.80;99.90;;;;;;5090911;28;20172;-56
2023/12/01 09:46:43;;;;;;;15.02;8.40;;;2.70;99.90;;;;;;5090855;28;20535;-54
2023/12/01 09:49:10;;;;;;;19.27;8.10;;;2.70;99.90;;;;;;5091237;28;20177;-55
2023/12/01 09:51:36;;;;;;;12.48;7.30;;;2.70;99.90;;;;;;5090878;28;20223;-56
2023/12/01 09:54:03;;;;;;;20.02;7.55;;;2.70;99.90;;;;;;5091392;28;20204;-53
2023/12/01 09:56:29;;;;;;;13.38;8.77;;;2.70;99.90;;;;;;5090796;28;20174;-56
2023/12/01 09:58:59;;;;;;;14.13;7.40;;;2.70;99.90;;;;;;5090189;28;20249;-55
2023/12/01 10:01:25;;;;;;;10.60;6.85;;;2.80;99.90;;;;;;5090390;28;20232;-56
2023/12/01 10:03:52;;;;;;;15.57;7.18;;;2.70;99.90;;;;;;5090793;28;20196;-55
2023/12/01 10:06:18;;;;;;;13.55;6.72;;;2.60;99.90;;;;;;5091042;28;20180;-53
2023/12/01 10:08:44;;;;;;;12.90;7.15;;;2.70;99.90;;;;;;5090844;28;20173;-56
2023/12/01 10:11:20;;;;;;;18.33;7.15;;;2.70;99.90;;;;;;5091079;28;20165;-53
2023/12/01 10:13:48;;;;;;;9.32;5.93;;;2.60;99.90;;;;;;5090617;28;20641;-57
2023/12/01 10:16:14;;;;;;;11.77;6.20;;;2.60;99.90;;;;;;5090712;28;20177;-55
2023/12/01 10:18:59;;;;;;;12.25;6.88;;;2.50;99.90;;;;;;5090836;28;20539;-56
2023/12/01 10:21:45;;;;;;;13.10;6.65;;;2.60;99.90;;;;;;5090435;28;20200;-52
2023/12/01 10:24:15;;;;;;;13.57;7.40;;;2.00;99.90;;;;;;5096439;28;20424;-55
2023/12/01 10:26:41;;;;;;;28.65;7.22;;;2.50;99.90;;;;;;5113621;28;20223;-55
2023/12/01 10:29:27;;;;;;;9.85;6.30;;;2.60;99.90;;;;;;5113969;28;20215;-53
2023/12/01 10:31:53;;;;;;;35.53;7.07;;;2.60;99.90;;;;;;5113715;28;20245;-56
2023/12/01 10:34:19;;;;;;;9.43;5.63;;;2.60;99.90;;;;;;5113317;28;20169;-53
2023/12/01 10:36:45;;;;;;;13.52;6.38;;;2.70;99.90;;;;;;5112937;28;20168;-53
2023/12/01 10:39:16;;;;;;;15.85;6.82;;;2.80;99.90;;;;;;5113553;28;20165;-54
2023/12/01 10:41:44;;;;;;;24.70;12.00;;;2.80;99.90;;;;;;5112972;28;20213;-46
2023/12/01 10:44:14;;;;;;;14.55;7.68;;;2.80;99.90;;;;;;5113685;28;20172;-54
2023/12/01 10:46:42;;;;;;;13.13;8.20;;;2.80;99.90;;;;;;5113474;28;20180;-50
2023/12/01 10:49:09;;;;;;;18.85;8.95;;;2.80;99.90;;;;;;5113396;28;20160;-56
2023/12/01 10:51:36;;;;;;;24.60;11.40;;;2.80;99.90;;;;;;5112919;28;20209;-53
2023/12/01 10:54:03;;;;;;;26.23;11.63;;;2.80;99.90;;;;;;5096217;28;20172;-52
2023/12/01 10:56:31;;;;;;;16.95;7.32;;;2.90;99.90;;;;;;5092324;28;20582;-56
2023/12/01 10:59:01;;;;;;;26.67;9.93;;;2.80;99.90;;;;;;5092365;28;20157;-53
2023/12/01 11:01:27;;;;;;;19.85;10.05;;;2.70;99.90;;;;;;5092227;28;20684;-55
2023/12/01 11:03:57;;;;;;;17.05;9.27;;;2.60;99.90;;;;;;5092553;28;20241;-54
2023/12/01 11:06:53;;;;;;;22.42;10.88;;;2.60;99.90;;;;;;5092404;28;20210;-52
2023/12/01 11:09:31;;;;;;;17.35;9.32;;;2.70;99.90;;;;;;5090956;28;20556;-57
2023/12/01 11:12:15;;;;;;;17.40;10.60;;;2.60;99.90;;;;;;5092099;28;20168;-56
2023/12/01 11:14:44;;;;;;;18.70;9.27;;;2.50;99.90;;;;;;5092681;28;20186;-56
2023/12/01 11:17:09;;;;;;;23.58;11.10;;;2.40;99.90;;;;;;5092598;28;20168;-54
2023/12/01 11:19:39;;;;;;;19.25;9.70;;;2.40;99.90;;;;;;5092046;28;20178;-55
2023/12/01 11:22:24;;;;;;;22.13;9.57;;;2.50;99.90;;;;;;5092148;28;20211;-48
2023/12/01 11:24:50;;;;;;;21.25;10.63;;;2.50;99.90;;;;;;5091910;28;20168;-57
2023/12/01 11:27:16;;;;;;;21.30;11.13;;;2.50;99.90;;;;;;5091963;28;20173;-54
2023/12/01 11:30:07;;;;;;;16.92;9.55;;;2.50;99.90;;;;;;5092052;28;20174;-50
2023/12/01 11:32:38;;;;;;;17.63;8.85;;;2.50;99.90;;;;;;5091769;28;20241;-56
2023/12/01 11:35:10;;;;;;;22.73;11.25;;;2.50;99.90;;;;;;5091708;28;20294;-53
2023/12/01 11:38:03;;;;;;;17.48;10.70;;;2.40;99.90;;;;;;5091886;28;20664;-46
2023/12/01 11:40:38;;;;;;;15.95;8.68;;;2.50;99.90;;;;;;5091936;28;20182;-48
2023/12/01 11:43:05;;;;;;;19.30;8.68;;;2.50;99.90;;;;;;5091727;28;20188;-47
2023/12/01 11:45:41;;;;;;;19.55;8.73;;;2.50;99.90;;;;;;5091591;28;20169;-45
2023/12/01 11:48:09;;;;;;;12.48;5.93;;;2.50;99.90;;;;;;5091875;28;20173;-54
2023/12/01 11:50:37;;;;;;;30.55;11.57;;;2.40;99.90;;;;;;5091648;28;20173;-54
2023/12/01 11:53:02;;;;;;;23.40;12.00;;;2.50;99.90;;;;;;5098485;28;20216;-54
2023/12/01 11:55:29;;;;;;;20.30;9.00;;;2.50;99.90;;;;;;5111089;28;20165;-46
2023/12/01 11:57:54;;;;;;;15.23;9.75;;;2.60;99.90;;;;;;5111523;28;20658;-48
2023/12/01 12:00:20;;;;;;;25.83;8.05;;;2.50;99.90;;;;;;5111950;28;20256;-49
2023/12/01 12:02:46;;;;;;;26.75;15.65;;;2.60;99.90;;;;;;5111555;28;20184;-50
2023/12/01 12:05:12;;;;;;;15.55;7.85;;;2.70;99.90;;;;;;5111534;28;20184;-52
2023/12/01 12:07:38;;;;;;;40.85;24.05;;;2.70;99.90;;;;;;5112073;28;20177;-53
2023/12/01 12:10:06;;;;;;;11.32;5.90;;;2.70;99.90;;;;;;5111148;28;20161;-58
2023/12/01 12:12:32;;;;;;;17.02;8.43;;;2.60;99.90;;;;;;5112555;28;20239;-55
2023/12/01 12:15:13;;;;;;;27.20;10.02;;;2.60;99.90;;;;;;5112734;28;20671;-57
2023/12/01 12:17:40;;;;;;;10.88;5.80;;;2.70;99.90;;;;;;5113331;28;20160;-61
2023/12/01 12:20:09;;;;;;;14.13;6.65;;;2.70;99.90;;;;;;5094400;28;20164;-60
2023/12/01 12:22:35;;;;;;;11.80;6.22;;;2.60;99.90;;;;;;5109394;28;20708;-59
2023/12/01 12:25:01;;;;;;;13.07;6.38;;;2.60;99.90;;;;;;5092103;28;20177;-57
2023/12/01 12:27:36;;;;;;;14.90;6.72;;;2.70;99.90;;;;;;5092014;28;20652;-57
2023/12/01 12:30:03;;;;;;;10.82;6.90;;;2.70;99.90;;;;;;5092015;28;20180;-57
2023/12/01 12:32:28;;;;;;;10.00;6.78;;;2.60;99.90;;;;;;5092004;28;20169;-59
2023/12/01 12:34:55;;;;;;;10.73;6.55;;;2.50;99.90;;;;;;5092060;28;20169;-60
2023/12/01 12:37:22;;;;;;;12.23;6.03;;;2.50;99.90;;;;;;5092229;28;20223;-60
2023/12/01 12:39:50;;;;;;;9.15;6.53;;;2.50;99.90;;;;;;5092135;28;20172;-60